Holmen, Wisconsin
Current Conditions -  °F | °C
As of 8:09 AM on Friday 24 Oct 2014 (Local Time) from KLSE Reporting Station
Haze Haze  
Wind Chill: 51°   Ceiling: 200
Heat Index: 51°   Visibility: 1.5mi
Dew Point: 50°   Wind: 10mph
Humidity: 96%   Direction: 150°SSE
Pressure: 29.98"   Gusts: NA
Location:  43.96°N, 91.26°W
Report Text: KLSE 241309Z 15009KT 1 1/2SM BR OVC002 11/10 A2998 RMK AO2 T01060100
Loading
Personal Weather Stations






























Interactive Weather Map
Tropical Storm Tracking
New forecast layout! Learn more

10-Day Weather Forecast

Advertisements
Track Severe Weather on mobile